Time;durP1;ratioP1;P1;durP2;ratioP2;P2;SDS_P1;SDS_P2;PMS_P1;PMS_P2;Temp;Humidity;BMP_temperature;BMP_pressure;BME280_temperature;BME280_humidity;BME280_pressure;Samples;Min_cycle;Max_cycle;Signal;HPM_P1;HPM_P2
2022/12/24 05:02:23;;;;;;;2.65;2.42;;;5.50;99.90;;;;;;5073423;23;20260;-67
2022/12/24 05:04:50;;;;;;;5.82;2.97;;;5.50;99.90;;;;;;4971292;28;20638;-67
2022/12/24 05:07:17;;;;;;;2.00;1.90;;;5.50;99.90;;;;;;4969244;28;20224;-68
2022/12/24 05:09:44;;;;;;;4.93;1.92;;;5.40;99.90;;;;;;4971529;28;20249;-68
2022/12/24 05:12:10;;;;;;;2.45;2.20;;;5.50;99.90;;;;;;4971076;28;20229;-67
2022/12/24 05:14:37;;;;;;;3.55;3.08;;;5.50;99.90;;;;;;4984550;23;20233;-68
2022/12/24 05:17:04;;;;;;;7.65;4.18;;;5.50;99.90;;;;;;4968679;28;20212;-67
2022/12/24 05:19:32;;;;;;;3.28;2.90;;;5.40;99.90;;;;;;4970731;28;20217;-68
2022/12/24 05:27:27;;;;;;;3.63;1.83;;;5.40;99.90;;;;;;4966134;28;20208;-68
2022/12/24 05:29:55;;;;;;;5.43;3.83;;;5.40;99.90;;;;;;4971174;28;20234;-68
2022/12/24 05:32:21;;;;;;;3.85;3.38;;;5.40;99.90;;;;;;4971191;28;20214;-68
2022/12/24 05:34:50;;;;;;;2.72;2.63;;;5.40;99.90;;;;;;4970448;28;20641;-68
2022/12/24 05:37:16;;;;;;;4.72;2.05;;;5.40;99.90;;;;;;4972507;28;20220;-69
2022/12/24 05:39:43;;;;;;;2.40;0.90;;;5.40;99.90;;;;;;4971087;28;20203;-67
2022/12/24 05:42:10;;;;;;;7.30;1.13;;;5.40;99.90;;;;;;4971509;28;20217;-67
2022/12/24 05:44:36;;;;;;;2.78;2.60;;;5.40;99.90;;;;;;4969801;28;20251;-67
2022/12/24 05:47:03;;;;;;;2.90;2.55;;;5.40;99.90;;;;;;4964018;28;20297;-68
2022/12/24 05:49:30;;;;;;;4.47;3.20;;;5.40;99.90;;;;;;4967719;28;20226;-68
2022/12/24 05:51:58;;;;;;;1.73;1.63;;;5.40;99.90;;;;;;4972190;28;20313;-68
2022/12/24 05:54:25;;;;;;;2.67;2.47;;;5.40;99.90;;;;;;4969256;28;20230;-68
2022/12/24 05:56:52;;;;;;;1.13;1.05;;;5.40;99.90;;;;;;4971882;28;20312;-69
2022/12/24 05:59:18;;;;;;;2.80;2.10;;;5.40;99.90;;;;;;4970865;28;20199;-70
2022/12/24 06:01:47;;;;;;;2.38;2.15;;;5.40;99.90;;;;;;4970638;28;20261;-67
2022/12/24 06:04:13;;;;;;;2.63;2.38;;;5.40;99.90;;;;;;4970046;28;20225;-68
2022/12/24 06:06:40;;;;;;;2.03;1.67;;;5.40;99.90;;;;;;4971317;28;20210;-68
2022/12/24 06:09:08;;;;;;;2.38;1.80;;;5.40;99.90;;;;;;4971267;28;20592;-69
2022/12/24 06:11:35;;;;;;;6.15;2.17;;;5.40;99.90;;;;;;4966425;28;20275;-69
2022/12/24 06:14:02;;;;;;;1.38;1.27;;;5.40;99.90;;;;;;4971150;28;20277;-69
2022/12/24 06:16:29;;;;;;;3.90;2.55;;;5.40;99.90;;;;;;4970296;28;20208;-69
2022/12/24 06:18:55;;;;;;;5.65;2.90;;;5.40;99.90;;;;;;4971430;28;20717;-68
2022/12/24 06:21:22;;;;;;;2.58;2.42;;;5.40;99.90;;;;;;4970267;28;20206;-69
2022/12/24 06:23:49;;;;;;;2.90;2.67;;;5.40;99.90;;;;;;4970972;28;20253;-69
2022/12/24 06:26:19;;;;;;;5.00;1.92;;;5.40;99.90;;;;;;4970146;28;20216;-69
2022/12/24 06:28:47;;;;;;;3.20;2.95;;;5.40;99.90;;;;;;4971045;28;20265;-69
2022/12/24 06:31:17;;;;;;;2.80;1.70;;;5.40;99.90;;;;;;4971279;28;20223;-69
2022/12/24 06:33:44;;;;;;;4.97;1.75;;;5.40;99.90;;;;;;4971144;28;20202;-68
2022/12/24 06:36:14;;;;;;;4.97;1.98;;;5.40;99.90;;;;;;4969218;28;20213;-68
2022/12/24 06:38:41;;;;;;;3.35;2.67;;;5.40;99.90;;;;;;4971521;28;20208;-68
2022/12/24 06:41:09;;;;;;;3.17;1.77;;;5.40;99.90;;;;;;4970784;28;20707;-69
2022/12/24 06:43:37;;;;;;;1.45;1.33;;;5.40;99.90;;;;;;4970082;28;20214;-69
2022/12/24 06:46:04;;;;;;;1.85;1.75;;;5.40;99.90;;;;;;4970360;28;20589;-69
2022/12/24 06:48:31;;;;;;;3.38;1.88;;;5.40;99.90;;;;;;4971081;28;20221;-68
2022/12/24 06:50:58;;;;;;;8.50;1.98;;;5.40;99.90;;;;;;4967904;28;20791;-69
2022/12/24 06:53:25;;;;;;;1.85;1.50;;;5.40;99.90;;;;;;4968063;28;20221;-70
2022/12/24 06:55:51;;;;;;;1.58;1.48;;;5.40;99.90;;;;;;4970510;28;20225;-69
2022/12/24 06:58:18;;;;;;;2.75;2.55;;;5.40;99.90;;;;;;4968089;28;20198;-69
2022/12/24 07:00:48;;;;;;;2.42;2.22;;;5.40;99.90;;;;;;4966988;28;20553;-69
2022/12/24 07:03:15;;;;;;;3.22;3.13;;;5.40;99.90;;;;;;4970921;28;20236;-68
2022/12/24 07:05:41;;;;;;;2.15;2.05;;;5.40;99.90;;;;;;4969530;28;20225;-68
2022/12/24 07:08:09;;;;;;;1.90;1.77;;;5.40;99.90;;;;;;4971627;28;20242;-69
2022/12/24 07:10:35;;;;;;;1.13;1.05;;;5.40;99.90;;;;;;4969411;28;20306;-68
2022/12/24 07:13:02;;;;;;;2.70;1.73;;;5.40;99.90;;;;;;4968669;28;20249;-69
2022/12/24 07:15:29;;;;;;;4.40;2.58;;;5.40;99.90;;;;;;4971157;28;20241;-67
2022/12/24 07:17:57;;;;;;;1.58;0.80;;;5.40;99.90;;;;;;4974159;28;20210;-68
2022/12/24 07:20:23;;;;;;;3.00;2.80;;;5.40;99.90;;;;;;4975895;28;20211;-68
2022/12/24 07:22:50;;;;;;;5.75;1.50;;;5.40;99.90;;;;;;4976329;28;20224;-69
2022/12/24 07:25:17;;;;;;;23.67;2.35;;;5.40;99.90;;;;;;4977029;28;20245;-69
2022/12/24 07:27:43;;;;;;;1.45;1.35;;;5.40;99.90;;;;;;4975446;28;20205;-68
2022/12/24 07:30:11;;;;;;;1.55;1.25;;;5.40;99.90;;;;;;4974626;28;20230;-68
2022/12/24 07:32:38;;;;;;;2.10;1.65;;;5.40;99.90;;;;;;4974629;28;20214;-68
2022/12/24 07:35:07;;;;;;;2.65;1.75;;;5.40;99.90;;;;;;4973659;28;20221;-68
2022/12/24 07:37:33;;;;;;;1.20;1.20;;;5.40;99.90;;;;;;4973388;28;20206;-68
2022/12/24 07:40:00;;;;;;;1.70;1.60;;;5.40;99.90;;;;;;4974395;28;20280;-68
2022/12/24 07:42:27;;;;;;;1.27;1.17;;;5.40;99.90;;;;;;4974029;28;20589;-68
2022/12/24 07:44:54;;;;;;;1.83;1.40;;;5.40;99.90;;;;;;4972014;28;20226;-68
2022/12/24 07:47:20;;;;;;;5.82;2.22;;;5.40;99.90;;;;;;4969306;28;20305;-68
2022/12/24 07:49:47;;;;;;;1.77;1.67;;;5.40;99.90;;;;;;4972570;28;20267;-68
2022/12/24 07:52:16;;;;;;;1.00;1.00;;;5.40;99.90;;;;;;4971528;28;20237;-68
2022/12/24 07:54:42;;;;;;;2.08;2.08;;;5.40;99.90;;;;;;4971923;28;20304;-68
2022/12/24 07:57:09;;;;;;;1.02;0.93;;;5.40;99.90;;;;;;4973352;28;20236;-68
2022/12/24 07:59:37;;;;;;;1.60;1.45;;;5.40;99.90;;;;;;4973715;28;21053;-69
2022/12/24 08:02:04;;;;;;;2.50;2.30;;;5.40;99.90;;;;;;4972908;28;20210;-69
2022/12/24 08:04:32;;;;;;;4.70;2.92;;;5.40;99.90;;;;;;4973730;28;20230;-69
2022/12/24 08:06:59;;;;;;;1.40;1.30;;;5.40;99.90;;;;;;4973375;28;20254;-69
2022/12/24 08:09:27;;;;;;;1.88;1.60;;;5.40;99.90;;;;;;4972477;28;20615;-69
2022/12/24 08:11:53;;;;;;;2.88;1.65;;;5.40;99.90;;;;;;4974804;28;20234;-69
2022/12/24 08:14:20;;;;;;;0.77;0.77;;;5.40;99.90;;;;;;4971884;28;20241;-69
2022/12/24 08:16:47;;;;;;;0.95;0.95;;;5.40;99.90;;;;;;4969624;28;20213;-69
2022/12/24 08:19:13;;;;;;;2.47;2.20;;;5.50;99.90;;;;;;4970772;28;20205;-68
2022/12/24 08:21:40;;;;;;;1.00;0.95;;;5.50;99.90;;;;;;4975209;28;20231;-69
2022/12/24 08:24:07;;;;;;;2.92;1.73;;;5.40;99.90;;;;;;4982922;28;20232;-68
2022/12/24 08:26:35;;;;;;;2.72;1.75;;;5.50;99.90;;;;;;4982079;28;20266;-68
2022/12/24 08:29:02;;;;;;;2.00;1.85;;;5.50;99.90;;;;;;4986027;28;20260;-68
2022/12/24 08:31:29;;;;;;;1.23;1.23;;;5.50;99.90;;;;;;4988294;28;20200;-68
2022/12/24 08:33:56;;;;;;;2.70;2.30;;;5.50;99.90;;;;;;4972094;28;20290;-68
2022/12/24 08:36:22;;;;;;;2.47;2.28;;;5.50;99.90;;;;;;4972994;28;20206;-70
2022/12/24 08:38:49;;;;;;;3.50;2.00;;;5.50;99.90;;;;;;4971036;28;20281;-69
2022/12/24 08:41:16;;;;;;;2.33;2.22;;;5.50;99.90;;;;;;4973490;28;20211;-68
2022/12/24 08:43:44;;;;;;;3.35;2.80;;;5.50;99.90;;;;;;4970651;28;20277;-68
2022/12/24 08:46:11;;;;;;;2.28;2.03;;;5.60;99.90;;;;;;4971312;28;20221;-69
2022/12/24 08:48:37;;;;;;;0.70;0.70;;;5.60;99.90;;;;;;4963557;28;20206;-69
2022/12/24 08:51:07;;;;;;;2.95;2.75;;;5.60;99.90;;;;;;4970128;28;20262;-69
2022/12/24 08:53:34;;;;;;;2.08;1.83;;;5.60;99.90;;;;;;4971427;28;20240;-67
2022/12/24 08:56:02;;;;;;;5.97;0.90;;;5.70;99.90;;;;;;4971254;28;20230;-68
2022/12/24 08:58:29;;;;;;;3.30;1.25;;;5.60;99.90;;;;;;4972921;28;20231;-69
2022/12/24 09:00:58;;;;;;;1.35;1.13;;;5.60;99.90;;;;;;4972656;28;20229;-68
2022/12/24 09:03:24;;;;;;;3.45;1.90;;;5.60;99.90;;;;;;4971952;28;20206;-68
2022/12/24 09:05:52;;;;;;;2.00;1.85;;;5.60;99.90;;;;;;4970269;28;20235;-69
2022/12/24 09:08:19;;;;;;;1.35;0.75;;;5.70;99.90;;;;;;4971084;28;20234;-68
2022/12/24 09:10:45;;;;;;;1.50;1.40;;;5.60;99.90;;;;;;4967028;28;20667;-68
2022/12/24 09:13:12;;;;;;;2.55;1.70;;;5.60;99.90;;;;;;4971952;28;20211;-68
2022/12/24 09:15:39;;;;;;;1.65;1.65;;;5.60;99.90;;;;;;4967180;28;20725;-68
2022/12/24 09:18:07;;;;;;;4.47;2.75;;;5.60;99.90;;;;;;4969600;28;20284;-68
2022/12/24 09:20:34;;;;;;;1.13;1.13;;;5.60;99.90;;;;;;4971670;28;20635;-68
2022/12/24 09:23:00;;;;;;;2.40;1.27;;;5.60;99.90;;;;;;4971295;28;20650;-68
2022/12/24 09:25:27;;;;;;;1.08;1.08;;;5.60;99.90;;;;;;4965311;28;20233;-68
2022/12/24 09:27:53;;;;;;;0.85;0.85;;;5.60;99.90;;;;;;4971339;28;20213;-68
2022/12/24 09:30:20;;;;;;;1.05;1.05;;;5.60;99.90;;;;;;4967098;28;20313;-69
2022/12/24 09:32:47;;;;;;;1.50;1.25;;;5.60;99.90;;;;;;4970269;28;20576;-69
2022/12/24 09:35:15;;;;;;;1.75;1.05;;;5.60;99.90;;;;;;4971134;28;20692;-68
2022/12/24 09:37:42;;;;;;;1.38;1.35;;;5.60;99.90;;;;;;4968457;28;20226;-67
2022/12/24 09:40:21;;;;;;;0.50;0.50;;;5.60;99.90;;;;;;4971475;28;20218;-68
2022/12/24 09:42:52;;;;;;;1.70;1.60;;;5.70;99.90;;;;;;4970076;28;20228;-68
2022/12/24 09:45:28;;;;;;;3.42;3.10;;;5.80;99.90;;;;;;4967101;28;20226;-68
2022/12/24 09:47:58;;;;;;;1.30;1.20;;;5.80;99.90;;;;;;4970685;28;20651;-68
2022/12/24 09:50:34;;;;;;;3.50;2.28;;;5.80;99.90;;;;;;4954515;28;20654;-68
2022/12/24 09:53:04;;;;;;;2.42;2.15;;;5.80;99.90;;;;;;4971474;28;20689;-68
2022/12/24 09:55:33;;;;;;;3.05;2.47;;;5.80;99.90;;;;;;4970385;28;20233;-68
2022/12/24 09:58:04;;;;;;;1.80;1.17;;;5.80;99.90;;;;;;4963737;28;20222;-69
2022/12/24 10:00:35;;;;;;;3.72;3.30;;;5.80;99.90;;;;;;4968898;28;20619;-69
2022/12/24 10:03:01;;;;;;;1.48;1.38;;;5.80;99.90;;;;;;4969449;28;20578;-69
2022/12/24 10:05:36;;;;;;;2.92;2.08;;;5.80;99.90;;;;;;4962749;28;20279;-69
2022/12/24 10:08:12;;;;;;;1.45;1.38;;;5.90;99.90;;;;;;4969835;28;20207;-68
2022/12/24 10:10:47;;;;;;;1.92;1.75;;;5.90;99.90;;;;;;4968452;28;20229;-71
2022/12/24 10:13:20;;;;;;;1.45;1.45;;;5.90;99.90;;;;;;4968290;28;20220;-68
2022/12/24 10:15:54;;;;;;;1.05;1.05;;;6.00;99.90;;;;;;4966856;28;20268;-68
2022/12/24 10:18:31;;;;;;;0.82;0.82;;;6.00;99.90;;;;;;4969283;28;20545;-68
2022/12/24 10:21:05;;;;;;;1.98;1.05;;;6.00;99.90;;;;;;4967541;28;20289;-68
2022/12/24 10:23:39;;;;;;;20.45;14.50;;;6.00;99.90;;;;;;4963839;28;20313;-68
2022/12/24 10:26:14;;;;;;;30.40;17.00;;;6.00;99.90;;;;;;4969149;28;20578;-68
2022/12/24 10:28:46;;;;;;;28.27;13.52;;;6.10;99.90;;;;;;4969812;28;20217;-67
2022/12/24 10:31:14;;;;;;;6.43;5.82;;;6.10;99.90;;;;;;4965295;28;20322;-67
2022/12/24 10:33:43;;;;;;;19.95;12.73;;;6.10;99.90;;;;;;4968684;28;20207;-67
2022/12/24 10:36:16;;;;;;;14.57;12.73;;;6.10;99.90;;;;;;4969477;28;20575;-68
2022/12/24 10:38:43;;;;;;;10.32;9.43;;;6.20;99.90;;;;;;4966656;28;20299;-68
2022/12/24 10:41:10;;;;;;;68.30;32.97;;;6.30;99.90;;;;;;4968714;28;20221;-68
2022/12/24 10:43:41;;;;;;;44.30;21.70;;;6.40;99.90;;;;;;4969189;28;20214;-68
2022/12/24 10:46:18;;;;;;;29.42;17.42;;;6.50;99.90;;;;;;4970099;28;20272;-68
2022/12/24 10:48:48;;;;;;;17.02;7.80;;;6.60;99.90;;;;;;4968704;28;20344;-67
2022/12/24 10:51:22;;;;;;;5.85;3.95;;;6.60;99.90;;;;;;4973777;28;20227;-68
2022/12/24 10:53:52;;;;;;;9.43;7.38;;;6.60;99.90;;;;;;4971013;28;20211;-68
2022/12/24 10:56:20;;;;;;;8.93;7.13;;;6.70;99.90;;;;;;4963009;28;20670;-68
2022/12/24 10:58:52;;;;;;;4.70;3.58;;;6.80;99.90;;;;;;4972957;28;20646;-67
2022/12/24 11:01:20;;;;;;;3.95;3.65;;;6.90;99.90;;;;;;4962954;28;20210;-68
2022/12/24 11:04:00;;;;;;;2.72;2.63;;;6.90;99.90;;;;;;4971798;28;20225;-69
2022/12/24 11:06:28;;;;;;;1.55;1.45;;;6.90;99.90;;;;;;4970166;28;20218;-67
2022/12/24 11:09:20;;;;;;;2.05;1.95;;;7.00;99.90;;;;;;4972204;28;20218;-68
2022/12/24 11:11:46;;;;;;;2.63;2.40;;;7.10;99.90;;;;;;4967156;28;20303;-68
2022/12/24 11:14:17;;;;;;;2.55;2.33;;;7.00;99.90;;;;;;4972415;28;20342;-67
2022/12/24 11:16:51;;;;;;;3.95;3.67;;;7.10;99.90;;;;;;4972805;28;20215;-67
2022/12/24 11:19:21;;;;;;;8.10;3.28;;;7.20;99.90;;;;;;4968750;28;20217;-68
2022/12/24 11:21:59;;;;;;;14.35;6.60;;;7.20;99.90;;;;;;4970516;28;20212;-68
2022/12/24 11:24:28;;;;;;;7.85;5.63;;;7.30;99.90;;;;;;4987285;23;20500;-67
2022/12/24 11:27:15;;;;;;;6.18;3.40;;;7.40;99.90;;;;;;5012914;28;20235;-67
2022/12/24 11:29:42;;;;;;;4.13;3.83;;;7.50;99.90;;;;;;5010717;28;20204;-67
2022/12/24 11:32:17;;;;;;;5.38;4.97;;;7.50;99.90;;;;;;5008113;28;20202;-68
2022/12/24 11:34:45;;;;;;;4.55;4.13;;;7.50;99.90;;;;;;5005644;28;20292;-67
2022/12/24 11:37:17;;;;;;;5.15;3.88;;;7.60;99.90;;;;;;4992419;28;20671;-67
2022/12/24 11:39:48;;;;;;;10.50;4.45;;;7.60;99.90;;;;;;4982613;28;20262;-66
2022/12/24 11:42:30;;;;;;;4.00;3.65;;;7.60;99.90;;;;;;4991729;28;20555;-67
2022/12/24 11:44:59;;;;;;;3.45;3.25;;;7.60;99.90;;;;;;4987326;28;20277;-67
2022/12/24 11:47:34;;;;;;;3.42;3.25;;;7.70;99.90;;;;;;4989675;28;20211;-66
2022/12/24 11:50:19;;;;;;;5.28;4.82;;;7.70;99.90;;;;;;4985440;28;20322;-68
2022/12/24 11:52:50;;;;;;;3.85;3.45;;;7.70;99.90;;;;;;4991129;28;20318;-67
2022/12/24 11:55:26;;;;;;;3.30;3.15;;;7.70;99.90;;;;;;4992754;28;20245;-67
2022/12/24 11:57:59;;;;;;;12.40;4.85;;;7.80;99.90;;;;;;4994727;28;20211;-68
2022/12/24 12:00:27;;;;;;;17.33;10.20;;;7.80;99.90;;;;;;4986349;28;20233;-66
2022/12/24 12:02:57;;;;;;;5.18;4.70;;;7.90;99.90;;;;;;4993419;28;20206;-68
2022/12/24 12:05:27;;;;;;;12.48;7.15;;;7.90;99.90;;;;;;4986322;28;20722;-66
2022/12/24 12:08:02;;;;;;;9.90;6.93;;;8.00;99.90;;;;;;4991911;28;20212;-67
2022/12/24 12:10:32;;;;;;;8.23;5.22;;;8.00;99.90;;;;;;4982072;28;20234;-66
2022/12/24 12:13:02;;;;;;;8.82;4.30;;;8.00;99.90;;;;;;4984639;28;20216;-66
2022/12/24 12:15:34;;;;;;;7.10;6.15;;;8.10;99.90;;;;;;4990257;28;20231;-67
2022/12/24 12:18:06;;;;;;;6.28;5.75;;;8.10;99.90;;;;;;4992589;28;20209;-67
2022/12/24 12:20:39;;;;;;;9.65;5.22;;;8.20;99.90;;;;;;4992844;28;20216;-66
2022/12/24 12:23:14;;;;;;;4.30;3.90;;;8.20;99.90;;;;;;4992321;28;20292;-67
2022/12/24 12:25:47;;;;;;;9.68;4.55;;;8.30;99.90;;;;;;4991698;28;20329;-66
2022/12/24 12:28:20;;;;;;;4.07;3.78;;;8.40;99.90;;;;;;4990449;28;20209;-66
2022/12/24 12:30:53;;;;;;;8.15;5.18;;;8.40;99.90;;;;;;4993110;28;20596;-66
2022/12/24 12:33:30;;;;;;;3.53;3.22;;;8.60;99.90;;;;;;4990453;28;20253;-66
2022/12/24 12:36:00;;;;;;;7.07;3.47;;;8.60;99.90;;;;;;4991771;28;20390;-65
2022/12/24 12:38:28;;;;;;;8.23;3.55;;;8.60;99.90;;;;;;4990847;28;20216;-67
2022/12/24 12:41:08;;;;;;;9.30;5.65;;;8.60;99.90;;;;;;4992753;28;20224;-67
2022/12/24 12:43:56;;;;;;;8.13;5.07;;;8.60;99.90;;;;;;4989664;28;20292;-67
2022/12/24 12:46:35;;;;;;;3.78;3.58;;;8.70;99.90;;;;;;4992866;28;20235;-68
2022/12/24 12:49:15;;;;;;;6.28;2.85;;;8.90;99.90;;;;;;4989338;28;20201;-67
2022/12/24 12:51:50;;;;;;;7.75;3.25;;;8.90;99.90;;;;;;4983316;28;20224;-67
2022/12/24 12:54:34;;;;;;;6.20;4.13;;;9.00;99.90;;;;;;4989670;28;20218;-68
2022/12/24 12:57:08;;;;;;;5.75;3.85;;;9.00;99.90;;;;;;4988129;28;20217;-66
2022/12/24 12:59:38;;;;;;;4.43;3.83;;;9.10;99.90;;;;;;4987435;28;20286;-68
2022/12/24 13:02:22;;;;;;;11.35;6.80;;;9.10;99.90;;;;;;4991717;28;20207;-68
2022/12/24 13:05:22;;;;;;;11.13;3.67;;;9.10;99.90;;;;;;4986598;28;20315;-67
2022/12/24 13:08:07;;;;;;;7.93;2.75;;;9.10;99.90;;;;;;4990427;28;20222;-67
2022/12/24 13:10:59;;;;;;;12.25;4.05;;;9.10;99.90;;;;;;4980355;28;20316;-67
2022/12/24 13:13:49;;;;;;;3.67;2.53;;;9.10;99.90;;;;;;4983504;28;20263;-67
2022/12/24 13:16:55;;;;;;;9.43;2.38;;;9.10;99.90;;;;;;4992401;28;20263;-67
2022/12/24 13:19:33;;;;;;;5.43;3.78;;;9.10;99.90;;;;;;4985634;28;20920;-68
2022/12/24 13:22:01;;;;;;;11.18;4.53;;;9.10;99.90;;;;;;4991299;28;20271;-67
2022/12/24 13:24:29;;;;;;;8.73;3.83;;;9.20;99.90;;;;;;4990009;28;20221;-67
2022/12/24 13:27:06;;;;;;;9.05;2.90;;;9.20;99.90;;;;;;4988573;28;20219;-67
2022/12/24 13:29:51;;;;;;;8.18;2.70;;;9.10;99.90;;;;;;4984983;28;20786;-67
2022/12/24 13:32:40;;;;;;;1.92;1.80;;;9.10;99.90;;;;;;4988527;28;20318;-68
2022/12/24 13:35:35;;;;;;;4.63;4.18;;;9.00;99.90;;;;;;4980028;28;20226;-67
2022/12/24 13:38:42;;;;;;;8.25;3.05;;;9.00;99.90;;;;;;4965767;28;20207;-68
2022/12/24 13:41:57;;;;;;;11.55;6.25;;;9.00;99.90;;;;;;4927406;29;20288;-67
2022/12/24 13:44:31;;;;;;;3.80;2.63;;;9.00;99.90;;;;;;4923152;29;20238;-68
2022/12/24 13:47:02;;;;;;;3.53;2.35;;;8.90;99.90;;;;;;4981915;28;20619;-67
2022/12/24 13:49:36;;;;;;;15.23;5.95;;;8.90;99.90;;;;;;4983107;28;21152;-66
2022/12/24 13:52:17;;;;;;;7.13;3.95;;;8.90;99.90;;;;;;4988095;28;20353;-67
2022/12/24 13:54:48;;;;;;;6.05;4.00;;;8.90;99.90;;;;;;4987351;28;20231;-66
2022/12/24 13:57:30;;;;;;;6.43;2.70;;;8.90;99.90;;;;;;4985344;28;20882;-67
2022/12/24 14:00:01;;;;;;;7.18;3.13;;;8.80;99.90;;;;;;4985513;28;20793;-67
2022/12/24 14:02:34;;;;;;;9.73;3.70;;;8.80;99.90;;;;;;4989760;28;20335;-67
2022/12/24 14:05:04;;;;;;;4.75;3.08;;;8.70;99.90;;;;;;4988387;28;20301;-67
2022/12/24 14:07:31;;;;;;;7.60;3.90;;;8.60;99.90;;;;;;4988003;28;20621;-67
2022/12/24 14:09:58;;;;;;;11.00;5.73;;;8.60;99.90;;;;;;4986557;28;20466;-66
2022/12/24 14:12:47;;;;;;;14.85;4.13;;;8.60;99.90;;;;;;4989903;28;21074;-67
2022/12/24 14:16:03;;;;;;;9.32;4.43;;;8.70;99.90;;;;;;4987888;28;20647;-67
2022/12/24 14:18:33;;;;;;;4.47;3.97;;;8.60;99.90;;;;;;4988583;28;20592;-67
2022/12/24 14:21:01;;;;;;;7.40;4.80;;;8.60;99.90;;;;;;4991203;28;20422;-67
2022/12/24 14:23:43;;;;;;;3.70;3.30;;;8.60;99.90;;;;;;4992055;28;20576;-67
2022/12/24 14:26:15;;;;;;;2.60;2.40;;;8.60;99.90;;;;;;4994265;28;20543;-67
2022/12/24 14:28:45;;;;;;;10.82;3.60;;;8.50;99.90;;;;;;4993735;28;20239;-66
2022/12/24 14:31:15;;;;;;;6.15;4.60;;;8.50;99.90;;;;;;4995507;28;20250;-67
2022/12/24 14:33:44;;;;;;;11.38;4.13;;;8.50;99.90;;;;;;4994121;28;20222;-67
2022/12/24 14:36:14;;;;;;;4.18;3.83;;;8.40;99.90;;;;;;4994668;28;20252;-67
2022/12/24 14:38:42;;;;;;;25.77;2.92;;;8.40;99.90;;;;;;4993848;28;20213;-67
2022/12/24 14:41:19;;;;;;;9.45;3.53;;;8.40;99.90;;;;;;4993672;28;20730;-67
2022/12/24 14:43:53;;;;;;;2.55;2.40;;;8.40;99.90;;;;;;4994333;28;20280;-67
2022/12/24 14:46:27;;;;;;;8.07;4.10;;;8.40;99.90;;;;;;4994969;28;20288;-67
2022/12/24 14:48:58;;;;;;;10.02;4.43;;;8.30;99.90;;;;;;4993310;28;20670;-67
2022/12/24 14:51:34;;;;;;;13.38;5.38;;;8.30;99.90;;;;;;4975325;28;20269;-67
2022/12/24 14:54:35;;;;;;;11.65;5.93;;;8.30;99.90;;;;;;4978562;28;20226;-67
2022/12/24 14:57:14;;;;;;;8.15;3.47;;;8.30;99.90;;;;;;4993705;28;20212;-67
2022/12/24 14:59:46;;;;;;;6.00;4.72;;;8.20;99.90;;;;;;4994669;28;20743;-67
2022/12/24 15:02:45;;;;;;;21.67;6.05;;;8.20;99.90;;;;;;4994481;28;20247;-66
2022/12/24 15:05:17;;;;;;;8.10;4.32;;;8.10;99.90;;;;;;4971299;28;20245;-67
2022/12/24 15:07:47;;;;;;;11.60;6.47;;;8.10;99.90;;;;;;4993549;28;20291;-69
2022/12/24 15:10:30;;;;;;;12.57;9.95;;;8.10;99.90;;;;;;4993422;28;20211;-67
2022/12/24 15:13:01;;;;;;;21.60;11.70;;;8.10;99.90;;;;;;4994019;28;20238;-67
2022/12/24 15:15:27;;;;;;;19.85;12.63;;;8.10;99.90;;;;;;4993930;28;20231;-67
2022/12/24 15:17:55;;;;;;;10.05;7.95;;;8.10;99.90;;;;;;4992471;28;20651;-68
2022/12/24 15:20:25;;;;;;;17.40;8.60;;;8.00;99.90;;;;;;4993838;28;20210;-67
2022/12/24 15:22:54;;;;;;;61.22;29.17;;;8.00;99.90;;;;;;4992276;28;20592;-67
2022/12/24 15:25:23;;;;;;;30.60;17.95;;;8.00;99.90;;;;;;4992901;28;20930;-67
2022/12/24 15:27:50;;;;;;;14.35;9.05;;;8.10;99.90;;;;;;4992839;28;20218;-66
2022/12/24 15:30:19;;;;;;;19.30;8.40;;;8.10;99.90;;;;;;4993079;28;20288;-68
2022/12/24 15:32:46;;;;;;;8.60;5.55;;;8.10;99.90;;;;;;4991296;28;20676;-67
2022/12/24 15:35:44;;;;;;;7.90;5.68;;;8.20;99.90;;;;;;4992474;28;20227;-67
2022/12/24 15:38:24;;;;;;;10.85;6.05;;;8.20;99.90;;;;;;4992512;28;20305;-67
2022/12/24 15:40:50;;;;;;;10.70;5.28;;;8.10;99.90;;;;;;4992203;28;20274;-67
2022/12/24 15:43:18;;;;;;;12.32;9.65;;;8.20;99.90;;;;;;4993297;28;20206;-67
2022/12/24 15:45:47;;;;;;;14.07;9.30;;;8.20;99.90;;;;;;4993938;28;20317;-67
2022/12/24 15:48:22;;;;;;;19.83;9.18;;;8.20;99.90;;;;;;4991484;28;20265;-66
2022/12/24 15:50:53;;;;;;;8.65;6.80;;;8.10;99.90;;;;;;4994152;28;20626;-67
2022/12/24 15:53:24;;;;;;;8.15;5.38;;;8.10;99.90;;;;;;4993516;28;20285;-67
2022/12/24 15:56:05;;;;;;;8.43;6.07;;;8.10;99.90;;;;;;4993666;28;20309;-67
2022/12/24 15:58:34;;;;;;;14.43;8.07;;;8.10;99.90;;;;;;4993996;28;20207;-67
2022/12/24 16:01:04;;;;;;;10.73;3.90;;;8.10;99.90;;;;;;4993819;28;20213;-66
2022/12/24 16:03:31;;;;;;;5.35;4.90;;;8.10;99.90;;;;;;4993195;28;20320;-66
2022/12/24 16:06:04;;;;;;;7.80;4.35;;;8.20;99.90;;;;;;4993434;28;20220;-67
2022/12/24 16:08:33;;;;;;;7.50;3.75;;;8.10;99.90;;;;;;4992766;28;20636;-67
2022/12/24 16:11:14;;;;;;;3.65;3.35;;;8.10;99.90;;;;;;4991713;28;20293;-66
2022/12/24 16:13:43;;;;;;;4.72;4.30;;;8.20;99.90;;;;;;4992393;28;20213;-66
2022/12/24 16:16:12;;;;;;;4.93;3.63;;;8.20;99.90;;;;;;4992645;28;20226;-66
2022/12/24 16:18:44;;;;;;;17.30;6.15;;;8.20;99.90;;;;;;4992305;28;20551;-66
2022/12/24 16:21:19;;;;;;;8.30;6.22;;;8.20;99.90;;;;;;4992866;28;20218;-66
2022/12/24 16:23:48;;;;;;;5.93;5.45;;;8.30;99.90;;;;;;4992256;28;20214;-65
2022/12/24 16:26:15;;;;;;;4.32;2.97;;;8.20;99.90;;;;;;4991853;28;20247;-66
2022/12/24 16:28:42;;;;;;;6.45;5.85;;;8.20;99.90;;;;;;4991816;28;20273;-66
2022/12/24 16:31:17;;;;;;;16.98;8.90;;;8.20;99.90;;;;;;4992566;28;20283;-66
2022/12/24 16:33:44;;;;;;;8.35;4.05;;;8.20;99.90;;;;;;4992355;28;20299;-66
2022/12/24 16:36:12;;;;;;;28.02;7.03;;;8.20;99.90;;;;;;4992281;28;20238;-65
2022/12/24 16:41:20;;;;;;;14.00;5.72;;;8.20;99.90;;;;;;4992424;28;20253;-66
2022/12/24 16:43:48;;;;;;;12.32;4.45;;;8.30;99.90;;;;;;4992543;28;20633;-66
2022/12/24 16:46:15;;;;;;;9.15;4.20;;;8.30;99.90;;;;;;4992207;28;20214;-66
2022/12/24 16:48:46;;;;;;;20.83;4.80;;;8.30;99.90;;;;;;4991009;28;20216;-65
2022/12/24 16:51:14;;;;;;;4.60;4.18;;;8.20;99.90;;;;;;4992393;28;20210;-66
2022/12/24 16:53:41;;;;;;;9.55;3.08;;;8.30;99.90;;;;;;4990978;28;20211;-66
2022/12/24 16:56:07;;;;;;;4.43;3.08;;;8.30;99.90;;;;;;4992346;28;20234;-66
2022/12/24 16:58:34;;;;;;;7.43;3.15;;;8.30;99.90;;;;;;4991677;28;20221;-66
2022/12/24 17:01:07;;;;;;;2.97;2.88;;;8.30;99.90;;;;;;4991944;28;20203;-66
2022/12/24 17:03:33;;;;;;;8.13;2.00;;;8.30;99.90;;;;;;4991335;28;20234;-65
2022/12/24 17:06:04;;;;;;;2.63;2.42;;;8.30;99.90;;;;;;4992159;28;20719;-66
2022/12/24 17:08:32;;;;;;;13.27;2.15;;;8.40;99.90;;;;;;4990827;28;20676;-67
2022/12/24 17:10:59;;;;;;;2.88;2.28;;;8.40;99.90;;;;;;4988682;28;20223;-68
2022/12/24 17:13:26;;;;;;;13.90;3.55;;;8.40;99.90;;;;;;4991261;28;20234;-67
2022/12/24 17:15:53;;;;;;;6.13;3.88;;;8.40;99.90;;;;;;4991625;28;20241;-68
2022/12/24 17:18:19;;;;;;;3.95;2.38;;;8.40;99.90;;;;;;4991039;28;20575;-68
2022/12/24 17:20:59;;;;;;;13.85;3.50;;;8.40;99.90;;;;;;4990686;28;20201;-65
2022/12/24 17:23:25;;;;;;;6.65;2.10;;;8.50;99.90;;;;;;4975552;28;20227;-66
2022/12/24 17:25:53;;;;;;;1.40;1.40;;;8.40;99.90;;;;;;5014580;23;20337;-66
2022/12/24 17:28:20;;;;;;;7.82;2.30;;;8.40;99.90;;;;;;4980761;28;20612;-68
2022/12/24 17:30:47;;;;;;;4.05;2.88;;;8.50;99.90;;;;;;4987660;28;20215;-68
2022/12/24 17:33:14;;;;;;;1.05;1.05;;;8.40;99.90;;;;;;4991911;28;20276;-67
2022/12/24 17:35:41;;;;;;;2.65;2.55;;;8.40;99.90;;;;;;4983522;28;20235;-68
2022/12/24 17:38:08;;;;;;;2.15;2.15;;;8.40;99.90;;;;;;4990106;28;20206;-68
2022/12/24 17:40:35;;;;;;;3.13;2.10;;;8.40;99.90;;;;;;4990451;28;20217;-69
2022/12/24 17:43:03;;;;;;;4.30;2.42;;;8.40;99.90;;;;;;4991858;28;20199;-69
2022/12/24 17:45:29;;;;;;;8.13;2.80;;;8.40;99.90;;;;;;4992115;28;20266;-68
2022/12/24 17:47:56;;;;;;;5.80;2.88;;;8.30;99.90;;;;;;4991873;28;20210;-68
2022/12/24 17:50:23;;;;;;;1.90;1.90;;;8.40;99.90;;;;;;4993195;28;20214;-68
2022/12/24 17:52:50;;;;;;;3.90;3.60;;;8.30;99.90;;;;;;4992848;28;20221;-68
2022/12/24 17:55:16;;;;;;;3.40;2.53;;;8.30;99.90;;;;;;4989036;28;20237;-68
2022/12/24 17:57:43;;;;;;;2.40;2.20;;;8.30;99.90;;;;;;4971951;28;20302;-68
2022/12/24 18:00:13;;;;;;;3.50;1.92;;;8.30;99.90;;;;;;4984252;28;20687;-68
2022/12/24 18:02:40;;;;;;;3.08;2.95;;;8.30;99.90;;;;;;4977685;28;20203;-68
2022/12/24 18:05:07;;;;;;;4.60;2.80;;;8.30;99.90;;;;;;4989147;28;20224;-68
2022/12/24 18:07:34;;;;;;;6.75;1.30;;;8.30;99.90;;;;;;4991211;28;20209;-67
2022/12/24 18:10:03;;;;;;;4.07;2.40;;;8.30;99.90;;;;;;4991066;28;20298;-68
2022/12/24 18:12:30;;;;;;;1.15;1.15;;;8.30;99.90;;;;;;4984898;28;20227;-67
2022/12/24 18:14:57;;;;;;;2.80;1.80;;;8.30;99.90;;;;;;4991404;28;20230;-68
2022/12/24 18:17:25;;;;;;;1.98;1.88;;;8.30;99.90;;;;;;4992136;28;20209;-69
2022/12/24 18:19:51;;;;;;;2.85;2.22;;;8.30;99.90;;;;;;4990707;28;20221;-69
2022/12/24 18:22:18;;;;;;;2.63;2.42;;;8.20;99.90;;;;;;4988700;28;20262;-69
2022/12/24 18:24:45;;;;;;;14.73;5.28;;;8.20;99.90;;;;;;4986490;28;20679;-69